createdAt,value
2019-05-20T00:00:16.277Z,14.60
2019-05-20T00:02:44.688Z,12.80
2019-05-20T00:05:13.442Z,14.03
2019-05-20T00:07:41.853Z,15.43
2019-05-20T00:10:10.601Z,13.50
2019-05-20T00:12:39.373Z,14.50
2019-05-20T00:15:08.042Z,13.67
2019-05-20T00:17:36.463Z,13.17
2019-05-20T00:20:07.066Z,14.43
2019-05-20T00:22:35.751Z,14.47
2019-05-20T00:25:06.502Z,13.73
2019-05-20T00:27:35.174Z,14.60
2019-05-20T00:30:04.622Z,14.13
2019-05-20T00:32:41.063Z,15.27
2019-05-20T00:35:04.326Z,16.40
2019-05-20T00:37:33.004Z,15.23
2019-05-20T00:40:01.410Z,15.00
2019-05-20T00:42:30.082Z,15.30
2019-05-20T00:44:58.769Z,15.60
2019-05-20T00:47:27.460Z,15.37
2019-05-20T00:49:55.866Z,15.60
2019-05-20T00:52:24.629Z,14.97
2019-05-20T00:54:53.044Z,15.60
2019-05-20T00:57:21.462Z,16.27
2019-05-20T00:59:50.201Z,16.60
2019-05-20T01:02:18.628Z,15.93
2019-05-20T01:04:47.047Z,15.70
2019-05-20T01:07:15.628Z,16.13
2019-05-20T01:09:44.334Z,15.60
2019-05-20T01:12:12.757Z,18.00
2019-05-20T01:14:41.173Z,17.17
2019-05-20T01:17:09.601Z,17.20
2019-05-20T01:19:38.082Z,17.00
2019-05-20T01:22:06.754Z,19.53
2019-05-20T01:24:35.158Z,18.20
2019-05-20T01:27:03.829Z,17.40
2019-05-20T01:29:32.514Z,17.73
2019-05-20T01:32:01.202Z,18.43
2019-05-20T01:34:29.997Z,18.60
2019-05-20T01:36:58.689Z,18.43
2019-05-20T01:39:27.138Z,19.33
2019-05-20T01:41:55.605Z,18.37
2019-05-20T01:44:24.344Z,19.00
2019-05-20T01:46:52.751Z,19.17
2019-05-20T01:49:21.438Z,19.63
2019-05-20T01:51:50.210Z,20.27
2019-05-20T01:54:18.629Z,19.80
2019-05-20T01:56:47.045Z,19.70
2019-05-20T01:59:15.457Z,18.77
2019-05-20T02:01:43.883Z,19.03
2019-05-20T02:04:12.376Z,19.50
2019-05-20T02:06:40.810Z,19.43
2019-05-20T02:09:09.298Z,18.17
2019-05-20T02:11:37.762Z,18.00
2019-05-20T02:14:08.206Z,20.40
2019-05-20T02:16:36.908Z,19.63
2019-05-20T02:19:05.488Z,20.17
2019-05-20T02:21:34.379Z,20.23
2019-05-20T02:24:02.797Z,19.87
2019-05-20T02:26:31.558Z,20.17
2019-05-20T02:29:00.241Z,18.77
2019-05-20T02:31:28.651Z,20.40
2019-05-20T02:33:57.066Z,21.80
2019-05-20T02:36:25.486Z,22.50
2019-05-20T02:38:54.186Z,23.23
2019-05-20T02:41:22.602Z,23.83
2019-05-20T02:43:51.009Z,25.10
2019-05-20T02:46:19.417Z,24.50
2019-05-20T02:48:47.846Z,25.10
2019-05-20T02:51:17.886Z,24.13
2019-05-20T02:53:46.298Z,24.80
2019-05-20T02:56:14.714Z,23.10
2019-05-20T02:58:43.129Z,23.53
2019-05-20T03:01:11.532Z,27.17
2019-05-20T03:03:40.030Z,26.87
2019-05-20T03:06:08.756Z,27.87
2019-05-20T03:08:37.431Z,26.43
2019-05-20T03:11:06.130Z,27.67
2019-05-20T03:13:34.542Z,27.83
2019-05-20T03:16:02.956Z,28.63
2019-05-20T03:18:31.366Z,28.50
2019-05-20T03:20:59.773Z,29.13
2019-05-20T03:23:28.549Z,27.40
2019-05-20T03:25:56.949Z,26.47
2019-05-20T03:28:25.372Z,28.10
2019-05-20T03:30:54.220Z,28.23
2019-05-20T03:33:22.794Z,28.90
2019-05-20T03:35:51.206Z,29.40
2019-05-20T03:38:19.622Z,30.00
2019-05-20T03:40:48.097Z,30.60
2019-05-20T03:43:16.523Z,30.30
2019-05-20T03:45:44.940Z,30.77
2019-05-20T03:48:13.359Z,29.67
2019-05-20T03:50:41.950Z,30.37
2019-05-20T03:53:10.369Z,30.90
2019-05-20T03:55:38.777Z,28.17
2019-05-20T03:58:07.200Z,29.17
2019-05-20T04:00:38.705Z,30.83
2019-05-20T04:03:07.203Z,28.67
2019-05-20T04:05:35.701Z,30.10
2019-05-20T04:08:04.118Z,23.57
2019-05-20T04:10:32.549Z,30.57
2019-05-20T04:13:01.208Z,30.60
2019-05-20T04:15:29.630Z,29.83
2019-05-20T04:17:58.030Z,30.10
2019-05-20T04:20:26.452Z,31.67
2019-05-20T04:22:55.015Z,30.50
2019-05-20T04:25:23.734Z,28.33
2019-05-20T04:27:52.155Z,29.30
2019-05-20T04:30:20.806Z,29.50
2019-05-20T04:32:49.219Z,33.07
2019-05-20T04:35:22.531Z,29.93
2019-05-20T04:37:47.762Z,28.73
2019-05-20T04:40:16.769Z,30.67
2019-05-20T04:42:45.175Z,27.57
2019-05-20T04:45:14.106Z,31.20
2019-05-20T04:47:42.509Z,30.37
2019-05-20T04:50:11.366Z,30.53
2019-05-20T04:52:39.772Z,30.97
2019-05-20T04:55:08.262Z,30.43
2019-05-20T04:57:36.669Z,30.40
2019-05-20T05:00:07.607Z,26.37
2019-05-20T05:02:36.331Z,31.30
2019-05-20T05:05:07.119Z,32.07
2019-05-20T05:07:35.970Z,32.07
2019-05-20T05:10:07.135Z,30.63
2019-05-20T05:12:35.683Z,26.47
2019-05-20T05:15:08.053Z,30.20
2019-05-20T05:17:37.070Z,29.60
2019-05-20T05:20:17.491Z,30.70
2019-05-20T05:22:39.060Z,31.13
2019-05-20T05:25:07.621Z,28.97
2019-05-20T05:27:36.318Z,29.83
2019-05-20T05:30:06.446Z,32.00
2019-05-20T05:32:41.698Z,29.80
2019-05-20T05:35:14.905Z,29.67
2019-05-20T05:37:43.816Z,25.27
2019-05-20T05:40:13.627Z,25.07
2019-05-20T05:42:42.080Z,24.20
2019-05-20T05:45:10.841Z,31.03
2019-05-20T05:47:39.595Z,31.90
2019-05-20T05:50:08.652Z,25.30
2019-05-20T05:52:37.056Z,31.17
2019-05-20T05:55:05.913Z,30.00
2019-05-20T05:57:34.317Z,29.03
2019-05-20T06:00:03.772Z,26.73
2019-05-20T06:02:32.503Z,29.00
2019-05-20T06:05:00.918Z,28.97
2019-05-20T06:07:29.326Z,29.20
2019-05-20T06:09:57.743Z,28.20
2019-05-20T06:12:26.153Z,28.10
2019-05-20T06:14:54.837Z,28.43
2019-05-20T06:17:23.238Z,28.47
2019-05-20T06:19:51.661Z,29.17
2019-05-20T06:22:20.490Z,30.53
2019-05-20T06:24:49.129Z,30.03
2019-05-20T06:27:17.874Z,29.97
2019-05-20T06:29:46.284Z,30.00
2019-05-20T06:32:15.375Z,30.50
2019-05-20T06:34:44.140Z,31.87
2019-05-20T06:37:17.016Z,30.53
2019-05-20T06:39:45.428Z,30.40
2019-05-20T06:42:14.097Z,30.77
2019-05-20T06:44:52.300Z,29.77
2019-05-20T06:47:12.637Z,30.80
2019-05-20T06:49:41.123Z,29.47
2019-05-20T06:52:09.537Z,25.97
2019-05-20T06:54:38.425Z,28.40
2019-05-20T06:57:06.940Z,27.80
2019-05-20T06:59:35.467Z,25.93
2019-05-20T07:02:03.938Z,27.37
2019-05-20T07:04:32.718Z,26.00
2019-05-20T07:07:01.512Z,24.90
2019-05-20T07:09:29.935Z,25.40
2019-05-20T07:11:58.674Z,19.17
2019-05-20T07:14:27.081Z,26.00
2019-05-20T07:16:55.742Z,21.80
2019-05-20T07:19:24.142Z,22.60
2019-05-20T07:21:52.555Z,20.50
2019-05-20T07:24:20.968Z,23.77
2019-05-20T07:26:49.389Z,26.37
2019-05-20T07:29:17.805Z,24.70
2019-05-20T07:31:46.230Z,26.03
2019-05-20T07:34:14.665Z,26.43
2019-05-20T07:36:43.129Z,26.10
2019-05-20T07:39:11.538Z,25.20
2019-05-20T07:41:41.634Z,26.77
2019-05-20T07:44:10.153Z,26.13
2019-05-20T07:46:38.645Z,26.83
2019-05-20T07:49:07.582Z,27.47
2019-05-20T07:51:36.882Z,27.10
2019-05-20T07:54:05.605Z,27.03
2019-05-20T07:56:37.195Z,21.77
2019-05-20T07:59:07.964Z,28.50
2019-05-20T08:01:36.458Z,28.70
2019-05-20T08:04:04.929Z,27.60
2019-05-20T08:06:33.360Z,28.30
2019-05-20T08:09:02.143Z,23.73
2019-05-20T08:11:30.549Z,24.90
2019-05-20T08:13:58.973Z,25.00
2019-05-20T08:16:27.390Z,22.70
2019-05-20T08:18:55.799Z,24.80
2019-05-20T08:21:24.501Z,24.90
2019-05-20T08:23:53.262Z,23.90
2019-05-20T08:26:21.704Z,23.37
2019-05-20T08:28:50.089Z,16.47
2019-05-20T08:31:18.505Z,22.90
2019-05-20T08:33:46.918Z,23.17
2019-05-20T08:36:15.655Z,24.17
2019-05-20T08:38:44.362Z,23.60
2019-05-20T08:41:12.779Z,22.50
2019-05-20T08:43:41.213Z,21.10
2019-05-20T08:46:09.685Z,21.50
2019-05-20T08:48:38.098Z,23.30
2019-05-20T08:51:06.762Z,24.03
2019-05-20T08:53:35.170Z,23.67
2019-05-20T08:56:03.902Z,24.17
2019-05-20T08:58:32.361Z,24.50
2019-05-20T09:01:00.785Z,22.93
2019-05-20T09:03:30.550Z,21.87
2019-05-20T09:05:59.253Z,22.43
2019-05-20T09:08:28.027Z,20.00
2019-05-20T09:10:56.435Z,23.57
2019-05-20T09:13:24.843Z,23.00
2019-05-20T09:15:53.271Z,23.60
2019-05-20T09:18:21.681Z,21.00
2019-05-20T09:20:50.522Z,21.03
2019-05-20T09:23:40.093Z,19.17
2019-05-20T09:26:08.520Z,18.07
2019-05-20T09:28:37.301Z,21.03
2019-05-20T09:31:06.141Z,23.00
2019-05-20T09:33:35.867Z,23.93
2019-05-20T09:36:04.758Z,20.43
2019-05-20T09:38:36.665Z,21.77
2019-05-20T09:41:03.333Z,22.23
2019-05-20T09:43:31.744Z,20.93
2019-05-20T09:46:07.532Z,20.20
2019-05-20T09:48:30.569Z,21.30
2019-05-20T09:50:59.273Z,18.87
2019-05-20T09:53:27.746Z,21.70
2019-05-20T09:55:56.239Z,22.13
2019-05-20T09:58:24.663Z,22.07
2019-05-20T10:00:53.060Z,20.93
2019-05-20T10:03:21.478Z,16.87
2019-05-20T10:05:49.893Z,20.47
2019-05-20T10:08:35.845Z,17.90
2019-05-20T10:10:48.465Z,20.97
2019-05-20T10:13:17.279Z,22.40
2019-05-20T10:15:45.701Z,18.60
2019-05-20T10:18:14.435Z,22.30
2019-05-20T10:20:42.854Z,18.43
2019-05-20T10:23:15.457Z,18.33
2019-05-20T10:25:41.414Z,17.07
2019-05-20T10:28:09.832Z,20.47
2019-05-20T10:30:38.270Z,23.10
2019-05-20T10:33:09.354Z,21.77
2019-05-20T10:35:36.900Z,20.97
2019-05-20T10:38:05.422Z,20.80
2019-05-20T10:40:34.065Z,20.30
2019-05-20T10:43:02.508Z,21.90
2019-05-20T10:45:31.250Z,21.33
2019-05-20T10:47:59.686Z,20.47
2019-05-20T10:50:28.095Z,16.77
2019-05-20T10:52:56.536Z,20.87
2019-05-20T10:55:25.067Z,21.40
2019-05-20T10:57:53.498Z,19.17
2019-05-20T11:00:22.499Z,21.43
2019-05-20T11:02:51.250Z,22.40
2019-05-20T11:05:19.931Z,21.43
2019-05-20T11:07:48.451Z,16.67
2019-05-20T11:10:17.352Z,21.10
2019-05-20T11:12:46.114Z,21.43
2019-05-20T11:15:15.070Z,19.33
2019-05-20T11:17:43.477Z,22.03
2019-05-20T11:20:12.594Z,22.33
2019-05-20T11:22:40.970Z,23.30
2019-05-20T11:25:10.684Z,22.37
2019-05-20T11:27:39.189Z,22.20
2019-05-20T11:30:08.369Z,21.60
2019-05-20T11:32:37.170Z,22.53
2019-05-20T11:35:09.088Z,16.93
2019-05-20T11:37:37.817Z,23.30
2019-05-20T11:40:09.388Z,22.03
2019-05-20T11:42:38.105Z,23.07
2019-05-20T11:45:09.980Z,21.23
2019-05-20T11:47:38.722Z,20.63
2019-05-20T11:50:08.741Z,22.47
2019-05-20T11:52:37.422Z,19.73
2019-05-20T11:55:07.061Z,22.13
2019-05-20T11:57:35.543Z,23.27
2019-05-20T12:00:07.390Z,22.90
2019-05-20T12:02:35.801Z,21.60
2019-05-20T12:05:31.575Z,23.50
2019-05-20T12:07:58.688Z,21.47
2019-05-20T12:10:27.094Z,20.60
2019-05-20T12:12:55.538Z,19.10
2019-05-20T12:15:23.960Z,18.93
2019-05-20T12:17:52.386Z,23.53
2019-05-20T12:20:20.970Z,22.87
2019-05-20T12:22:49.398Z,21.97
2019-05-20T12:25:18.117Z,23.10
2019-05-20T12:27:46.530Z,21.43
2019-05-20T12:30:15.393Z,18.23
2019-05-20T12:32:44.186Z,15.77
2019-05-20T12:35:12.981Z,24.70
2019-05-20T12:37:45.350Z,21.17
2019-05-20T12:40:12.441Z,22.90
2019-05-20T12:42:40.859Z,22.70
2019-05-20T12:45:10.702Z,18.23
2019-05-20T12:47:39.122Z,24.20
2019-05-20T12:50:08.607Z,19.03
2019-05-20T12:52:37.426Z,24.57
2019-05-20T12:55:09.640Z,21.40
2019-05-20T12:57:36.834Z,20.13
2019-05-20T13:00:13.081Z,23.23
2019-05-20T13:02:42.937Z,20.63
2019-05-20T13:05:11.899Z,23.47
2019-05-20T13:07:40.377Z,23.10
2019-05-20T13:10:26.927Z,24.73
2019-05-20T13:12:40.060Z,21.40
2019-05-20T13:15:10.196Z,24.93
2019-05-20T13:17:43.839Z,21.93
2019-05-20T13:20:09.606Z,24.90
2019-05-20T13:22:38.031Z,30.60
2019-05-20T13:25:07.410Z,25.13
2019-05-20T13:27:35.834Z,25.77
2019-05-20T13:30:06.487Z,24.37
2019-05-20T13:32:34.954Z,24.17
2019-05-20T13:35:04.692Z,26.60
2019-05-20T13:37:33.139Z,24.30
2019-05-20T13:40:03.144Z,24.50
2019-05-20T13:42:31.695Z,25.57
2019-05-20T13:45:00.111Z,24.10
2019-05-20T13:47:28.602Z,24.90
2019-05-20T13:49:57.001Z,24.47
2019-05-20T13:52:25.425Z,24.47
2019-05-20T13:54:54.267Z,23.67
2019-05-20T13:57:22.670Z,25.37
2019-05-20T13:59:51.089Z,25.47
2019-05-20T14:02:19.504Z,25.77
2019-05-20T14:04:47.977Z,25.77
2019-05-20T14:07:16.411Z,25.67
2019-05-20T14:09:45.177Z,22.33
2019-05-20T14:12:13.588Z,25.43
2019-05-20T14:14:42.013Z,24.30
2019-05-20T14:17:10.479Z,24.30
2019-05-20T14:19:38.893Z,24.47
2019-05-20T14:22:07.304Z,23.50
2019-05-20T14:24:35.727Z,25.00
2019-05-20T14:27:04.290Z,23.37
2019-05-20T14:29:33.261Z,21.97
2019-05-20T14:32:01.982Z,25.23
2019-05-20T14:34:30.445Z,23.67
2019-05-20T14:36:58.873Z,23.80
2019-05-20T14:39:27.295Z,24.43
2019-05-20T14:41:55.989Z,25.30
2019-05-20T14:44:24.421Z,22.27
2019-05-20T14:46:52.899Z,20.43
2019-05-20T14:49:21.321Z,22.17
2019-05-20T14:51:49.725Z,22.33
2019-05-20T14:54:18.155Z,22.47
2019-05-20T14:56:46.633Z,23.83
2019-05-20T14:59:15.082Z,20.70
2019-05-20T15:01:43.773Z,23.30
2019-05-20T15:04:12.212Z,23.30
2019-05-20T15:06:40.942Z,23.60
2019-05-20T15:09:09.368Z,24.57
2019-05-20T15:11:38.863Z,23.23
2019-05-20T15:14:07.892Z,25.07
2019-05-20T15:16:36.620Z,22.53
2019-05-20T15:19:05.049Z,24.60
2019-05-20T15:21:33.441Z,23.03
2019-05-20T15:24:02.123Z,19.90
2019-05-20T15:26:50.026Z,22.00
2019-05-20T15:29:27.540Z,21.27
2019-05-20T15:31:49.057Z,20.17
2019-05-20T15:34:17.487Z,23.47
2019-05-20T15:36:45.948Z,23.80
2019-05-20T15:39:14.406Z,23.87
2019-05-20T15:41:42.829Z,22.63
2019-05-20T15:44:11.433Z,23.93
2019-05-20T15:46:40.334Z,20.60
2019-05-20T15:49:09.017Z,22.60
2019-05-20T15:51:37.716Z,23.30
2019-05-20T15:54:06.135Z,22.47
2019-05-20T15:56:34.887Z,22.43
2019-05-20T15:59:03.349Z,23.03
2019-05-20T16:01:32.166Z,22.60
2019-05-20T16:04:00.588Z,22.40
2019-05-20T16:06:28.998Z,23.03
2019-05-20T16:08:57.824Z,21.97
2019-05-20T16:11:26.277Z,23.20
2019-05-20T16:13:54.741Z,23.20
2019-05-20T16:16:23.488Z,22.93
2019-05-20T16:18:51.912Z,24.40
2019-05-20T16:21:20.322Z,24.30
2019-05-20T16:23:48.758Z,23.83
2019-05-20T16:26:17.219Z,24.00
2019-05-20T16:28:46.122Z,20.90
2019-05-20T16:31:14.606Z,25.23
2019-05-20T16:33:43.281Z,22.30
2019-05-20T16:36:11.713Z,25.77
2019-05-20T16:38:40.178Z,25.03
2019-05-20T16:41:08.942Z,26.17
2019-05-20T16:43:37.358Z,24.53
2019-05-20T16:46:06.537Z,22.17
2019-05-20T16:48:35.055Z,26.33
2019-05-20T16:51:03.480Z,26.20
2019-05-20T16:53:31.960Z,24.50
2019-05-20T16:56:00.675Z,21.03
2019-05-20T16:58:29.110Z,24.50
2019-05-20T17:00:57.841Z,27.70
2019-05-20T17:03:26.534Z,23.97
2019-05-20T17:05:55.222Z,23.90
2019-05-20T17:08:23.919Z,23.07
2019-05-20T17:10:52.328Z,27.23
2019-05-20T17:13:20.741Z,26.47
2019-05-20T17:15:49.149Z,26.10
2019-05-20T17:18:17.566Z,23.83
2019-05-20T17:20:46.572Z,20.37
2019-05-20T17:23:15.271Z,26.60
2019-05-20T17:25:43.762Z,22.70
2019-05-20T17:28:12.170Z,26.60
2019-05-20T17:30:45.331Z,26.50
2019-05-20T17:33:11.188Z,22.50
2019-05-20T17:35:39.785Z,24.10
2019-05-20T17:38:08.594Z,24.43
2019-05-20T17:40:37.545Z,24.03
2019-05-20T17:43:06.149Z,24.07
2019-05-20T17:45:34.888Z,21.77
2019-05-20T17:48:03.551Z,21.73
2019-05-20T17:50:32.045Z,20.03
2019-05-20T17:53:00.470Z,21.73
2019-05-20T17:55:29.820Z,22.43
2019-05-20T17:57:58.728Z,22.87
2019-05-20T18:00:27.153Z,25.40
2019-05-20T18:02:55.559Z,23.80
2019-05-20T18:05:23.980Z,24.40
2019-05-20T18:07:52.390Z,15.73
2019-05-20T18:10:22.460Z,26.77
2019-05-20T18:12:50.864Z,20.77
2019-05-20T18:15:19.553Z,25.90
2019-05-20T18:17:47.967Z,27.80
2019-05-20T18:20:17.022Z,28.37
2019-05-20T18:22:45.720Z,27.50
2019-05-20T18:25:14.813Z,29.57
2019-05-20T18:27:43.241Z,24.70
2019-05-20T18:30:14.212Z,21.33
2019-05-20T18:32:42.936Z,28.60
2019-05-20T18:35:12.191Z,24.60
2019-05-20T18:37:40.625Z,28.80
2019-05-20T18:40:14.824Z,25.20
2019-05-20T18:42:40.050Z,28.43
2019-05-20T18:45:09.621Z,26.00
2019-05-20T18:47:38.029Z,27.03
2019-05-20T18:50:07.980Z,26.53
2019-05-20T18:52:36.746Z,21.47
2019-05-20T18:55:06.508Z,28.70
2019-05-20T18:57:35.255Z,27.90
2019-05-20T19:00:08.606Z,26.47
2019-05-20T19:02:37.338Z,29.63
2019-05-20T19:05:07.490Z,25.37
2019-05-20T19:07:35.897Z,28.50
2019-05-20T19:10:05.454Z,27.97
2019-05-20T19:12:33.863Z,27.20
2019-05-20T19:15:02.358Z,27.73
2019-05-20T19:17:32.542Z,26.60
2019-05-20T19:20:01.190Z,27.70
2019-05-20T19:22:29.593Z,25.97
2019-05-20T19:24:58.016Z,25.47
2019-05-20T19:27:26.720Z,20.37
2019-05-20T19:29:55.140Z,19.87
2019-05-20T19:32:24.166Z,20.77
2019-05-20T19:34:52.658Z,26.33
2019-05-20T19:37:21.138Z,26.60
2019-05-20T19:39:49.821Z,24.00
2019-05-20T19:42:18.273Z,26.50
2019-05-20T19:44:46.731Z,17.07
2019-05-20T19:47:15.137Z,25.67
2019-05-20T19:49:43.565Z,24.63
2019-05-20T19:52:12.246Z,27.17
2019-05-20T19:54:40.943Z,27.63
2019-05-20T19:57:09.345Z,27.13
2019-05-20T19:59:37.812Z,26.10
2019-05-20T20:02:16.791Z,25.77
2019-05-20T20:04:36.738Z,25.93
2019-05-20T20:07:05.156Z,25.87
2019-05-20T20:09:33.632Z,22.33
2019-05-20T20:12:02.065Z,25.10
2019-05-20T20:14:30.488Z,24.00
2019-05-20T20:16:58.896Z,21.23
2019-05-20T20:19:27.342Z,25.30
2019-05-20T20:21:56.113Z,25.07
2019-05-20T20:24:26.228Z,25.80
2019-05-20T20:26:54.656Z,21.27
2019-05-20T20:29:23.137Z,25.27
2019-05-20T20:31:51.546Z,17.07
2019-05-20T20:34:20.382Z,23.20
2019-05-20T20:36:48.772Z,17.93
2019-05-20T20:39:17.197Z,24.50
2019-05-20T20:41:45.937Z,22.23
2019-05-20T20:44:14.343Z,20.77
2019-05-20T20:46:43.011Z,19.13
2019-05-20T20:49:14.624Z,21.10
2019-05-20T20:51:41.844Z,21.27
2019-05-20T20:54:10.247Z,22.33
2019-05-20T20:56:38.669Z,23.67
2019-05-20T20:59:07.373Z,22.90
2019-05-20T21:01:36.181Z,21.40
2019-05-20T21:04:04.585Z,20.40
2019-05-20T21:06:33.002Z,20.33
2019-05-20T21:09:01.405Z,21.20
2019-05-20T21:11:29.849Z,21.10
2019-05-20T21:13:58.252Z,17.90
2019-05-20T21:16:26.677Z,25.77
2019-05-20T21:18:55.087Z,23.93
2019-05-20T21:21:23.867Z,24.00
2019-05-20T21:23:52.269Z,21.10
2019-05-20T21:26:21.045Z,24.73
2019-05-20T21:28:49.501Z,22.83
2019-05-20T21:31:17.942Z,26.97
2019-05-20T21:33:46.351Z,24.20
2019-05-20T21:36:15.066Z,25.20
2019-05-20T21:38:43.475Z,25.03
2019-05-20T21:41:12.203Z,25.70
2019-05-20T21:43:40.614Z,25.13
2019-05-20T21:46:09.021Z,24.10
2019-05-20T21:48:37.702Z,26.17
2019-05-20T21:51:06.383Z,27.57
2019-05-20T21:53:35.150Z,25.73
2019-05-20T21:56:03.970Z,27.00
2019-05-20T21:58:32.377Z,27.57
2019-05-20T22:01:01.442Z,28.57
2019-05-20T22:03:29.840Z,28.33
2019-05-20T22:05:58.258Z,25.43
2019-05-20T22:08:26.669Z,23.60
2019-05-20T22:10:55.100Z,25.83
2019-05-20T22:13:23.814Z,26.30
2019-05-20T22:15:52.259Z,26.50
2019-05-20T22:18:21.042Z,25.00
2019-05-20T22:20:49.448Z,25.00
2019-05-20T22:23:22.194Z,27.23
2019-05-20T22:25:52.184Z,27.60
2019-05-20T22:28:20.789Z,25.90
2019-05-20T22:30:49.209Z,27.27
2019-05-20T22:33:17.621Z,19.93
2019-05-20T22:35:46.028Z,21.60
2019-05-20T22:38:14.445Z,24.30
2019-05-20T22:40:43.221Z,24.63
2019-05-20T22:43:11.931Z,21.83
2019-05-20T22:45:40.618Z,26.03
2019-05-20T22:48:09.306Z,25.83
2019-05-20T22:50:37.710Z,22.03
2019-05-20T22:53:06.121Z,24.47
2019-05-20T22:55:34.538Z,20.67
2019-05-20T22:58:03.290Z,23.23
2019-05-20T23:00:32.061Z,23.03
2019-05-20T23:03:00.571Z,22.60
2019-05-20T23:05:28.977Z,23.13
2019-05-20T23:07:57.402Z,21.97
2019-05-20T23:10:25.813Z,22.80
2019-05-20T23:12:54.552Z,23.87
2019-05-20T23:15:23.288Z,24.40
2019-05-20T23:17:52.037Z,21.90
2019-05-20T23:20:20.441Z,22.73
2019-05-20T23:22:49.251Z,23.03
2019-05-20T23:25:17.918Z,22.60
2019-05-20T23:27:46.384Z,25.07
2019-05-20T23:30:16.841Z,20.17
2019-05-20T23:32:45.269Z,23.20
2019-05-20T23:35:13.756Z,22.90
2019-05-20T23:37:42.174Z,23.77
2019-05-20T23:40:11.889Z,21.47
2019-05-20T23:42:40.305Z,22.70
2019-05-20T23:45:09.550Z,21.97
2019-05-20T23:47:37.973Z,22.37
2019-05-20T23:50:06.845Z,21.13
2019-05-20T23:52:35.274Z,23.00
2019-05-20T23:55:07.851Z,20.63
2019-05-20T23:57:36.261Z,21.13
